Time;durP1;ratioP1;P1;durP2;ratioP2;P2;SDS_P1;SDS_P2;PMS_P1;PMS_P2;Temp;Humidity;BMP_temperature;BMP_pressure;BME280_temperature;BME280_humidity;BME280_pressure;Samples;Min_cycle;Max_cycle;Signal;HPM_P1;HPM_P2
2022/12/23 00:00:11;;;;;;;7.50;1.75;;;;;;;8.72;100.00;99819.00;5023342;28;20061;-56
2022/12/23 00:02:36;;;;;;;1.95;1.52;;;;;;;8.72;100.00;99830.44;5026903;28;20695;-52
2022/12/23 00:05:02;;;;;;;1.38;1.10;;;;;;;8.69;100.00;99835.25;5019997;28;20026;-56
2022/12/23 00:07:28;;;;;;;2.53;1.63;;;;;;;8.66;100.00;99828.53;5024122;28;20029;-58
2022/12/23 00:09:53;;;;;;;2.28;1.23;;;;;;;8.67;100.00;99834.63;5019462;28;20035;-57
2022/12/23 00:15:05;;;;;;;2.25;1.33;;;;;;;8.65;100.00;99826.09;5023369;28;20438;-57
2022/12/23 00:17:41;;;;;;;2.92;1.13;;;;;;;8.68;100.00;99834.44;5025428;28;20095;-56
2022/12/23 00:20:09;;;;;;;1.33;0.85;;;;;;;8.59;100.00;99835.59;5018009;28;20061;-57
2022/12/23 00:25:18;;;;;;;3.20;1.70;;;;;;;8.57;100.00;99839.44;5020703;28;20036;-57
2022/12/23 00:28:00;;;;;;;2.65;2.03;;;;;;;8.60;100.00;99841.72;5022019;28;20033;-54
2022/12/23 00:30:26;;;;;;;1.40;1.27;;;;;;;8.54;100.00;99847.75;5017227;28;20155;-57
2022/12/23 00:32:51;;;;;;;7.15;3.28;;;;;;;8.58;100.00;99854.31;5016809;28;20034;-55
2022/12/23 00:35:17;;;;;;;6.82;2.42;;;;;;;8.58;100.00;99854.31;5017195;28;20079;-54
2022/12/23 00:37:42;;;;;;;11.77;4.80;;;;;;;8.51;100.00;99849.78;5017595;28;20354;-54
2022/12/23 00:43:00;;;;;;;17.40;5.28;;;;;;;8.50;100.00;99852.63;5023585;28;20054;-55
2022/12/23 00:45:25;;;;;;;8.75;4.10;;;;;;;8.49;100.00;99851.81;5021081;28;20082;-55
2022/12/23 00:50:37;;;;;;;32.15;8.35;;;;;;;8.49;100.00;99870.31;5023571;28;20052;-56
2022/12/23 00:53:04;;;;;;;9.30;3.88;;;;;;;8.43;100.00;99881.63;5022886;28;20372;-57
2022/12/23 00:55:29;;;;;;;11.73;4.22;;;;;;;8.41;100.00;99888.13;5022460;28;20037;-56
2022/12/23 00:57:55;;;;;;;12.50;3.80;;;;;;;8.37;100.00;99887.66;5028142;28;20086;-55
2022/12/23 01:05:35;;;;;;;9.20;3.10;;;;;;;8.33;100.00;99893.50;5029879;28;20383;-58
2022/12/23 01:05:49;;;;;;;2.22;1.98;;;;;;;8.32;100.00;99887.41;5023129;28;20044;-58
2022/12/23 01:08:15;;;;;;;2.45;1.17;;;;;;;8.32;100.00;99892.69;5028606;28;20057;-60
2022/12/23 01:10:40;;;;;;;2.03;1.17;;;;;;;8.35;100.00;99894.13;5028749;28;20029;-60
2022/12/23 01:13:06;;;;;;;3.10;1.92;;;;;;;8.34;100.00;99884.56;5023440;28;20033;-56
2022/12/23 01:15:32;;;;;;;1.98;1.35;;;;;;;8.34;100.00;99874.00;5026390;28;20029;-56
2022/12/23 01:17:57;;;;;;;1.63;1.52;;;;;;;8.30;100.00;99881.50;5030519;28;20482;-59
2022/12/23 01:20:23;;;;;;;0.93;0.80;;;;;;;8.29;100.00;99871.94;5033737;28;20044;-58
2022/12/23 01:22:49;;;;;;;0.75;0.75;;;;;;;8.28;100.00;99862.38;5024230;28;20030;-57
2022/12/23 01:25:14;;;;;;;1.45;1.25;;;;;;;8.30;100.00;99857.72;5030072;28;20094;-57
2022/12/23 01:27:39;;;;;;;3.33;0.98;;;;;;;8.24;100.00;99856.66;5036704;28;20477;-57
2022/12/23 01:30:05;;;;;;;1.40;0.77;;;;;;;8.21;100.00;99854.41;5037315;28;20112;-54
2022/12/23 01:32:31;;;;;;;2.08;0.63;;;;;;;8.19;100.00;99861.72;5030871;28;20033;-57
2022/12/23 01:34:56;;;;;;;11.05;1.20;;;;;;;8.18;100.00;99875.09;5031119;28;20029;-54
2022/12/23 01:37:21;;;;;;;1.08;1.00;;;;;;;8.17;100.00;99873.47;5031930;28;20033;-56
2022/12/23 01:39:47;;;;;;;1.00;0.93;;;;;;;8.19;100.00;99874.91;5027476;28;20340;-57
2022/12/23 01:45:08;;;;;;;2.72;0.93;;;;;;;8.19;100.00;99874.91;5026134;28;20079;-56
2022/12/23 01:47:39;;;;;;;1.50;1.13;;;;;;;8.15;100.00;99864.91;5022840;28;20549;-52
2022/12/23 01:50:23;;;;;;;0.57;0.50;;;;;;;8.20;100.00;99862.53;5024471;28;20029;-57
2022/12/23 01:53:03;;;;;;;2.83;0.90;;;;;;;8.19;100.00;99860.91;5020596;28;20450;-54
2022/12/23 01:55:32;;;;;;;1.50;1.13;;;;;;;8.17;100.00;99863.72;5024825;28;20128;-58
2022/12/23 01:58:06;;;;;;;2.58;0.50;;;;;;;8.12;100.00;99865.28;5025743;28;20048;-61
2022/12/23 02:09:15;;;;;;;2.70;1.13;;;;;;;8.13;100.00;99880.13;5022563;28;20047;-60
2022/12/23 02:12:02;;;;;;;1.55;0.75;;;;;;;8.18;100.00;99877.72;5024285;28;20076;-59
2022/12/23 02:18:10;;;;;;;1.35;1.27;;;;;;;8.04;100.00;99877.63;5018966;28;20128;-59
2022/12/23 02:21:00;;;;;;;3.15;1.42;;;;;;;8.06;100.00;99872.16;5026484;28;20033;-56
2022/12/23 02:23:49;;;;;;;5.25;0.88;;;;;;;8.10;100.00;99873.41;5029809;28;20048;-60
2022/12/23 02:26:36;;;;;;;2.55;1.20;;;;;;;8.03;100.00;99880.47;5029509;28;20029;-57
2022/12/23 02:29:26;;;;;;;3.53;0.82;;;;;;;7.98;100.00;99870.47;5026445;28;20043;-59
2022/12/23 02:32:11;;;;;;;1.00;0.50;;;;;;;7.96;100.00;99864.53;5024101;28;20056;-56
2022/12/23 02:34:46;;;;;;;2.30;1.08;;;;;;;7.92;100.00;99847.44;5019004;28;20041;-60
2022/12/23 02:37:20;;;;;;;2.10;1.00;;;;;;;7.98;100.00;99836.16;5026891;28;20470;-58
2022/12/23 02:40:04;;;;;;;3.60;1.42;;;;;;;7.94;100.00;99826.97;5032213;28;20047;-60
2022/12/23 02:42:46;;;;;;;0.95;0.82;;;;;;;7.93;100.00;99832.44;5021555;28;20030;-57
2022/12/23 02:45:33;;;;;;;0.98;0.85;;;;;;;7.91;100.00;99845.00;5022241;28;20109;-57
2022/12/23 02:48:05;;;;;;;1.45;1.13;;;;;;;7.89;100.00;99858.38;5021688;28;20048;-58
2022/12/23 02:50:35;;;;;;;4.25;1.90;;;;;;;7.91;100.00;99853.75;5028348;28;20427;-57
2022/12/23 02:53:08;;;;;;;2.20;1.60;;;;;;;7.89;100.00;99850.47;5019972;28;20368;-58
2022/12/23 02:55:37;;;;;;;1.05;1.00;;;;;;;7.88;100.00;99858.59;5025201;28;20037;-56
2022/12/23 02:58:07;;;;;;;1.10;1.02;;;;;;;7.86;100.00;99864.84;5019717;28;20051;-58
2022/12/23 03:00:33;;;;;;;2.25;1.20;;;;;;;7.86;100.00;99858.75;5029240;28;20032;-58
2022/12/23 03:02:59;;;;;;;1.85;1.20;;;;;;;7.85;100.00;99859.78;5032630;28;20025;-55
2022/12/23 03:05:40;;;;;;;2.35;1.00;;;;;;;7.86;100.00;99866.69;5031544;28;20053;-60
2022/12/23 03:08:15;;;;;;;3.17;1.30;;;;;;;7.84;100.00;99860.78;5030610;28;20033;-59
2022/12/23 03:10:49;;;;;;;1.33;0.88;;;;;;;7.86;100.00;99867.50;5016547;28;22333;-59
2022/12/23 03:13:45;;;;;;;1.50;1.40;;;;;;;7.84;100.00;99873.97;5019708;28;20033;-57
2022/12/23 03:16:14;;;;;;;0.90;0.90;;;;;;;7.84;100.00;99873.97;5031907;28;20159;-55
2022/12/23 03:19:07;;;;;;;2.45;1.25;;;;;;;7.83;100.00;99878.44;5017646;28;20083;-56
2022/12/23 03:21:44;;;;;;;4.78;0.80;;;;;;;7.82;100.00;99886.53;5020644;28;20038;-60
2022/12/23 03:24:39;;;;;;;1.90;1.30;;;;;;;7.83;100.00;99886.34;5024742;28;20040;-58
2022/12/23 03:27:17;;;;;;;1.42;1.27;;;;;;;7.81;100.00;99879.63;5023608;28;20045;-57
2022/12/23 03:29:46;;;;;;;1.05;0.90;;;;;;;7.77;100.00;99878.34;5034575;28;20042;-56
2022/12/23 03:32:13;;;;;;;2.70;1.33;;;;;;;7.79;100.00;99876.34;5029023;28;20034;-59
2022/12/23 03:34:44;;;;;;;1.80;1.70;;;;;;;7.80;100.00;99883.28;5018570;28;20034;-57
2022/12/23 03:37:13;;;;;;;2.65;1.40;;;;;;;7.79;100.00;99887.72;5030642;28;20120;-59
2022/12/23 03:39:47;;;;;;;1.48;1.23;;;;;;;7.76;100.00;99898.66;5025813;28;20072;-59
2022/12/23 03:42:44;;;;;;;3.83;2.15;;;;;;;7.81;100.00;99893.63;5030200;28;20037;-55
2022/12/23 03:45:21;;;;;;;1.10;0.95;;;;;;;7.75;100.00;99880.38;5023985;28;20080;-59
2022/12/23 03:47:52;;;;;;;3.95;1.40;;;;;;;7.73;100.00;99877.09;5028313;28;20049;-57
2022/12/23 03:50:19;;;;;;;1.67;0.70;;;;;;;7.77;100.00;99873.06;5020327;28;20044;-58
2022/12/23 03:52:55;;;;;;;0.90;0.90;;;;;;;7.74;100.00;99884.00;5025039;28;20283;-60
2022/12/23 03:55:26;;;;;;;2.17;1.35;;;;;;;7.73;100.00;99861.28;5028254;28;20084;-59
2022/12/23 03:58:05;;;;;;;0.65;0.57;;;;;;;7.73;100.00;99856.00;5032693;28;20026;-56
2022/12/23 04:00:38;;;;;;;1.80;1.70;;;;;;;7.73;100.00;99848.09;5038877;28;20044;-56
2022/12/23 04:03:18;;;;;;;1.00;0.82;;;;;;;7.72;100.00;99847.28;5028426;28;20479;-56
2022/12/23 04:05:51;;;;;;;0.93;0.93;;;;;;;7.72;100.00;99842.00;5028681;28;20094;-57
2022/12/23 04:08:25;;;;;;;1.35;0.77;;;;;;;7.70;100.00;99835.28;5023587;28;20159;-59
2022/12/23 04:10:51;;;;;;;1.40;1.30;;;;;;;7.71;100.00;99827.16;5025222;28;20049;-59
2022/12/23 04:13:16;;;;;;;2.25;1.33;;;;;;;7.72;100.00;99820.03;5020902;28;20038;-58
2022/12/23 04:15:42;;;;;;;1.15;0.90;;;;;;;7.69;100.00;99817.78;5028710;28;20382;-56
2022/12/23 04:18:09;;;;;;;0.88;0.88;;;;;;;7.73;100.00;99819.06;5025136;28;20033;-59
2022/12/23 04:20:35;;;;;;;1.10;1.00;;;;;;;7.72;100.00;99817.41;5027602;28;20057;-60
2022/12/23 04:23:00;;;;;;;1.33;1.00;;;;;;;7.70;100.00;99828.16;5026472;28;20076;-60
2022/12/23 04:25:26;;;;;;;0.98;0.77;;;;;;;7.67;100.00;99814.50;5033720;28;20391;-56
2022/12/23 04:27:51;;;;;;;1.42;1.05;;;;;;;7.64;100.00;99821.81;5024178;28;20083;-58
2022/12/23 04:30:17;;;;;;;0.82;0.82;;;;;;;7.65;100.00;99818.16;5035810;28;20036;-58
2022/12/23 04:32:42;;;;;;;2.10;1.92;;;;;;;7.65;100.00;99818.16;5030784;28;20040;-58
2022/12/23 04:35:09;;;;;;;1.65;1.00;;;;;;;7.65;100.00;99826.09;5031700;28;20030;-59
2022/12/23 04:37:34;;;;;;;2.47;1.30;;;;;;;7.64;100.00;99823.63;5025441;28;20392;-60
2022/12/23 04:40:00;;;;;;;1.45;1.35;;;;;;;7.65;100.00;99820.81;5030090;28;20021;-54
2022/12/23 04:42:25;;;;;;;0.65;0.65;;;;;;;7.68;100.00;99832.00;5024817;28;20370;-51
2022/12/23 04:44:50;;;;;;;0.70;0.60;;;;;;;7.70;100.00;99827.34;5032985;28;20059;-55
2022/12/23 04:47:16;;;;;;;0.95;0.88;;;;;;;7.66;100.00;99813.69;5032526;28;20061;-56
2022/12/23 04:49:41;;;;;;;0.55;0.50;;;;;;;7.64;100.00;99813.91;5023412;28;20081;-57
2022/12/23 04:52:06;;;;;;;3.45;0.68;;;;;;;7.65;100.00;99812.06;5034130;28;20490;-60
2022/12/23 04:54:32;;;;;;;1.10;1.00;;;;;;;7.60;100.00;99796.81;5028835;28;20033;-60
2022/12/23 04:56:57;;;;;;;0.93;0.90;;;;;;;7.60;100.00;99786.25;5034322;28;20500;-57
2022/12/23 04:59:22;;;;;;;0.65;0.63;;;;;;;7.58;100.00;99796.16;5025545;28;20052;-57
2022/12/23 05:01:48;;;;;;;3.83;0.80;;;;;;;7.58;100.00;99787.44;5032634;28;20044;-60
2022/12/23 05:04:13;;;;;;;0.88;0.43;;;;;;;7.56;100.00;99782.38;5024630;28;20057;-59
2022/12/23 05:06:39;;;;;;;0.38;0.30;;;;;;;7.56;100.00;99785.00;5039317;28;20064;-58
2022/12/23 05:09:04;;;;;;;1.13;0.52;;;;;;;7.57;100.00;99784.00;5030997;28;20034;-59
2022/12/23 05:11:30;;;;;;;0.30;0.30;;;;;;;7.57;100.00;99762.88;5025066;28;20118;-59
2022/12/23 05:13:55;;;;;;;0.75;0.75;;;;;;;7.57;100.00;99757.63;5019040;28;20033;-60
2022/12/23 05:16:21;;;;;;;1.17;0.68;;;;;;;7.54;100.00;99755.34;5037927;28;20028;-60
2022/12/23 05:18:46;;;;;;;0.70;0.70;;;;;;;7.54;100.00;99750.09;5037514;28;20036;-58
2022/12/23 05:21:12;;;;;;;0.93;0.70;;;;;;;7.53;100.00;99735.25;5021547;28;20030;-60
2022/12/23 05:23:37;;;;;;;2.30;1.25;;;;;;;7.50;100.00;99732.97;5028557;28;20033;-58
2022/12/23 05:26:03;;;;;;;0.82;0.77;;;;;;;7.49;100.00;99733.19;5028907;28;20025;-54
2022/12/23 05:28:28;;;;;;;1.10;1.02;;;;;;;7.48;100.00;99726.28;5035439;28;20028;-60
2022/12/23 05:30:59;;;;;;;2.08;1.65;;;;;;;7.50;100.00;99722.44;5029798;28;20505;-60
2022/12/23 05:33:25;;;;;;;1.52;1.42;;;;;;;7.51;100.00;99717.97;5028425;28;20490;-58
2022/12/23 05:35:50;;;;;;;1.13;1.02;;;;;;;7.51;100.00;99726.72;5023961;28;20021;-60
2022/12/23 05:38:16;;;;;;;0.50;0.50;;;;;;;7.50;100.00;99719.00;5025391;28;20387;-55
2022/12/23 05:40:41;;;;;;;1.77;0.90;;;;;;;7.49;100.00;99707.63;5031832;28;20052;-55
2022/12/23 05:43:06;;;;;;;1.45;1.35;;;;;;;7.50;100.00;99703.97;5022421;28;20495;-56
2022/12/23 05:45:35;;;;;;;1.10;0.82;;;;;;;7.52;100.00;99699.31;5024634;28;20029;-57
2022/12/23 05:48:00;;;;;;;1.00;0.90;;;;;;;7.51;100.00;99689.78;5029694;28;20059;-56
2022/12/23 05:50:25;;;;;;;1.92;1.50;;;;;;;7.49;100.00;99675.16;5021241;28;20041;-56
2022/12/23 05:52:51;;;;;;;1.70;1.30;;;;;;;7.51;100.00;99670.50;5025540;28;20033;-54
2022/12/23 05:55:16;;;;;;;1.13;0.95;;;;;;;7.50;100.00;99677.59;5027406;28;20418;-57
2022/12/23 05:57:41;;;;;;;2.22;1.27;;;;;;;7.49;100.00;99669.88;5023580;28;20034;-55
2022/12/23 06:00:08;;;;;;;1.23;0.95;;;;;;;7.49;100.00;99670.69;5031224;28;20029;-57
2022/12/23 06:02:33;;;;;;;5.35;1.40;;;;;;;7.47;100.00;99677.97;5039230;28;20029;-55
2022/12/23 06:04:59;;;;;;;2.00;0.95;;;;;;;7.44;100.00;99659.91;5027940;28;20030;-60
2022/12/23 06:07:24;;;;;;;0.93;0.82;;;;;;;7.41;100.00;99660.28;5029132;28;20032;-58
2022/12/23 06:09:49;;;;;;;4.07;1.48;;;;;;;7.35;100.00;99643.38;5025092;28;21567;-54
2022/12/23 06:12:15;;;;;;;3.42;0.93;;;;;;;7.34;100.00;99635.69;5022008;28;20040;-54
2022/12/23 06:14:40;;;;;;;2.58;1.50;;;;;;;7.33;100.00;99634.88;5027689;28;20021;-57
2022/12/23 06:17:05;;;;;;;1.80;0.77;;;;;;;7.32;100.00;99632.41;5019390;28;20053;-58
2022/12/23 06:19:31;;;;;;;2.40;2.20;;;;;;;7.34;100.00;99625.13;5018400;28;20032;-57
2022/12/23 06:21:56;;;;;;;1.40;0.93;;;;;;;7.33;100.00;99623.47;5022886;28;20033;-56
2022/12/23 06:24:22;;;;;;;1.80;1.25;;;;;;;7.31;100.00;99615.78;5014266;28;20021;-59
2022/12/23 06:26:47;;;;;;;1.05;0.73;;;;;;;7.28;100.00;99626.72;5025341;28;20022;-57
2022/12/23 06:29:12;;;;;;;1.00;0.63;;;;;;;7.27;100.00;99614.50;5019290;28;20371;-58
2022/12/23 06:31:38;;;;;;;2.05;0.82;;;;;;;7.26;100.00;99617.34;5024196;28;20037;-58
2022/12/23 06:34:03;;;;;;;2.25;1.27;;;;;;;7.27;100.00;99598.69;5020973;28;20207;-56
2022/12/23 06:36:28;;;;;;;3.75;1.67;;;;;;;7.29;100.00;99593.25;5022363;28;20402;-56
2022/12/23 06:38:54;;;;;;;0.63;0.38;;;;;;;7.29;100.00;99590.59;5024955;28;20197;-56
2022/12/23 06:41:19;;;;;;;1.30;1.20;;;;;;;7.32;100.00;99584.94;5029950;28;20061;-53
2022/12/23 06:43:44;;;;;;;0.65;0.52;;;;;;;7.32;100.00;99579.66;5020837;28;20120;-55
2022/12/23 06:46:10;;;;;;;0.80;0.70;;;;;;;7.33;100.00;99565.47;5019766;28;20040;-57
2022/12/23 06:48:35;;;;;;;2.15;1.45;;;;;;;7.33;100.00;99557.56;5025174;28;20081;-57
2022/12/23 06:51:00;;;;;;;5.55;1.42;;;;;;;7.33;100.00;99565.47;5025926;28;20693;-56
2022/12/23 06:53:26;;;;;;;3.35;1.00;;;;;;;7.33;100.00;99565.47;5023152;28;20068;-56
2022/12/23 06:55:58;;;;;;;3.42;1.02;;;;;;;7.37;100.00;99540.34;5021522;28;20031;-55
2022/12/23 06:58:24;;;;;;;1.70;1.40;;;;;;;7.33;100.00;99534.66;5019144;28;20415;-57
2022/12/23 07:00:49;;;;;;;1.15;0.63;;;;;;;7.32;100.00;99526.94;5016948;28;20026;-56
2022/12/23 07:03:14;;;;;;;0.98;0.85;;;;;;;7.27;100.00;99532.78;5012324;28;20038;-55
2022/12/23 07:05:40;;;;;;;0.75;0.70;;;;;;;7.27;100.00;99530.13;5015091;28;20132;-56
2022/12/23 07:08:05;;;;;;;2.83;0.90;;;;;;;7.24;100.00;99527.06;5017799;28;20173;-57
2022/12/23 07:10:30;;;;;;;0.77;0.77;;;;;;;7.25;100.00;99526.88;5018015;28;20437;-55
2022/12/23 07:12:56;;;;;;;0.88;0.88;;;;;;;7.29;100.00;99524.69;5011999;28;20039;-57
2022/12/23 07:15:21;;;;;;;1.15;0.63;;;;;;;7.32;100.00;99516.38;5022526;28;20403;-56
2022/12/23 07:17:46;;;;;;;1.13;1.00;;;;;;;7.33;100.00;99510.91;5025236;28;20464;-54
2022/12/23 07:20:13;;;;;;;0.88;0.88;;;;;;;7.32;100.00;99500.56;5018854;28;20566;-56
2022/12/23 07:22:38;;;;;;;1.27;1.13;;;;;;;7.26;100.00;99503.97;5014797;28;20034;-55
2022/12/23 07:25:04;;;;;;;2.65;0.90;;;;;;;7.20;100.00;99509.00;5011821;28;20112;-56
2022/12/23 07:27:29;;;;;;;1.17;0.60;;;;;;;7.22;100.00;99496.44;5029710;28;20065;-57
2022/12/23 07:29:54;;;;;;;1.30;0.47;;;;;;;7.19;100.00;99494.19;5026113;28;20026;-56
2022/12/23 07:32:20;;;;;;;0.95;0.93;;;;;;;7.21;100.00;99502.72;5011616;28;20056;-56
2022/12/23 07:34:45;;;;;;;4.72;1.10;;;;;;;7.20;100.00;99508.16;5020681;28;20483;-54
2022/12/23 07:37:10;;;;;;;0.70;0.70;;;;;;;7.20;100.00;99509.00;5031207;28;20489;-57
2022/12/23 07:39:36;;;;;;;1.08;0.82;;;;;;;7.19;100.00;99502.09;5027448;28;20032;-55
2022/12/23 07:42:01;;;;;;;1.80;0.98;;;;;;;7.19;100.00;99496.81;5026241;28;20030;-54
2022/12/23 07:44:26;;;;;;;3.00;1.60;;;;;;;7.19;100.00;99491.53;5018635;28;20038;-52
2022/12/23 07:46:52;;;;;;;1.42;0.98;;;;;;;7.24;100.00;99487.53;5031472;28;20036;-56
2022/12/23 07:49:17;;;;;;;0.88;0.77;;;;;;;7.22;100.00;99480.59;5028756;28;20057;-58
2022/12/23 07:51:43;;;;;;;1.60;1.23;;;;;;;7.17;100.00;99463.75;5032268;28;20078;-53
2022/12/23 07:54:11;;;;;;;3.72;1.00;;;;;;;7.24;100.00;99455.88;5024480;28;20056;-54
2022/12/23 07:56:36;;;;;;;0.98;0.95;;;;;;;7.25;100.00;99436.41;5028758;28;20132;-57
2022/12/23 07:59:02;;;;;;;1.08;0.93;;;;;;;7.26;100.00;99428.31;5028368;28;20124;-58
2022/12/23 08:01:27;;;;;;;0.98;0.65;;;;;;;7.25;100.00;99421.41;5034573;28;20068;-58
2022/12/23 08:03:53;;;;;;;0.75;0.40;;;;;;;7.28;100.00;99404.38;5019330;28;20349;-56
2022/12/23 08:06:18;;;;;;;0.77;0.40;;;;;;;7.25;100.00;99388.97;5022456;28;20024;-56
2022/12/23 08:08:45;;;;;;;0.57;0.57;;;;;;;7.27;100.00;99403.56;5026562;28;20432;-53
2022/12/23 08:11:12;;;;;;;0.20;0.20;;;;;;;7.23;100.00;99399.72;5029374;28;20049;-51
2022/12/23 08:13:41;;;;;;;0.52;0.50;;;;;;;7.21;100.00;99394.63;5028813;28;20026;-57
2022/12/23 08:16:08;;;;;;;0.10;0.10;;;;;;;7.22;100.00;99392.78;5022168;28;20104;-56
2022/12/23 08:18:35;;;;;;;0.28;0.20;;;;;;;7.26;100.00;99404.59;5021070;28;20387;-57
2022/12/23 08:21:07;;;;;;;0.30;0.20;;;;;;;7.28;100.00;99407.84;5028626;28;20025;-53
2022/12/23 08:23:32;;;;;;;0.22;0.22;;;;;;;7.28;100.00;99396.47;5027717;28;20414;-54
2022/12/23 08:26:08;;;;;;;0.80;0.47;;;;;;;7.31;100.00;99404.00;5023886;28;20076;-56
2022/12/23 08:28:35;;;;;;;0.10;0.10;;;;;;;7.29;100.00;99411.28;5021523;28;20048;-56
2022/12/23 08:31:03;;;;;;;0.35;0.20;;;;;;;7.35;100.00;99408.69;5023598;28;20520;-53
2022/12/23 08:33:28;;;;;;;0.60;0.52;;;;;;;7.32;100.00;99414.34;5021557;28;20533;-57
2022/12/23 08:35:53;;;;;;;0.50;0.28;;;;;;;7.33;100.00;99409.88;5029887;28;20021;-56
2022/12/23 08:38:19;;;;;;;0.20;0.20;;;;;;;7.35;100.00;99394.69;5021741;28;20088;-55
2022/12/23 08:40:44;;;;;;;0.38;0.17;;;;;;;7.33;100.00;99391.41;5016195;28;20714;-53
2022/12/23 08:43:10;;;;;;;0.28;0.10;;;;;;;7.34;100.00;99398.34;5023287;28;20115;-54
2022/12/23 08:45:37;;;;;;;0.25;0.20;;;;;;;7.39;100.00;99382.75;5022656;28;20052;-55
2022/12/23 08:48:03;;;;;;;0.28;0.28;;;;;;;7.39;100.00;99372.19;5015204;28;20041;-55
2022/12/23 08:50:28;;;;;;;0.20;0.05;;;;;;;7.35;100.00;99363.84;5018764;28;20060;-58
2022/12/23 08:52:54;;;;;;;1.65;0.38;;;;;;;7.29;100.00;99369.09;5019128;28;20029;-57
2022/12/23 08:55:19;;;;;;;1.23;0.52;;;;;;;7.29;100.00;99342.75;5030146;28;20414;-55
2022/12/23 08:57:44;;;;;;;0.50;0.50;;;;;;;7.32;100.00;99337.06;5024208;28;20030;-55
2022/12/23 09:00:10;;;;;;;0.63;0.30;;;;;;;7.34;100.00;99316.59;5022311;28;20022;-52
2022/12/23 09:02:35;;;;;;;0.40;0.40;;;;;;;7.35;100.00;99281.28;5020890;28;20043;-55
2022/12/23 09:05:01;;;;;;;0.30;0.30;;;;;;;7.33;100.00;99256.94;5014016;28;20037;-57
2022/12/23 09:07:26;;;;;;;0.13;0.13;;;;;;;7.31;100.00;99266.91;5019491;28;20034;-56
2022/12/23 09:09:51;;;;;;;0.10;0.10;;;;;;;7.30;100.00;99266.06;5027607;28;20029;-57
2022/12/23 09:12:17;;;;;;;0.30;0.30;;;;;;;7.33;100.00;99280.66;5025507;28;20104;-55
2022/12/23 09:14:46;;;;;;;0.77;0.22;;;;;;;7.36;100.00;99269.75;5026745;28;20105;-54
2022/12/23 09:17:12;;;;;;;0.22;0.10;;;;;;;7.37;100.00;99266.09;5035698;28;20017;-56
2022/12/23 09:19:37;;;;;;;0.35;0.20;;;;;;;7.43;100.00;99278.47;5024087;28;20030;-52
2022/12/23 09:22:02;;;;;;;0.32;0.15;;;;;;;7.50;100.00;99283.78;5019858;28;20030;-57
2022/12/23 09:24:28;;;;;;;0.20;0.20;;;;;;;7.54;100.00;99296.38;5019308;28;20121;-58
2022/12/23 09:26:53;;;;;;;0.35;0.05;;;;;;;7.50;100.00;99287.22;5027965;28;20394;-52
2022/12/23 09:29:18;;;;;;;0.30;0.25;;;;;;;7.51;100.00;99280.94;5032808;28;20395;-58
2022/12/23 09:31:44;;;;;;;2.63;0.30;;;;;;;7.56;100.00;99254.78;5027424;28;20599;-59
2022/12/23 09:34:10;;;;;;;1.90;0.38;;;;;;;7.64;100.00;99245.81;5024875;28;20029;-54
2022/12/23 09:36:35;;;;;;;0.40;0.40;;;;;;;7.65;100.00;99244.84;5024924;28;20026;-59
2022/12/23 09:39:01;;;;;;;0.32;0.10;;;;;;;7.72;100.00;99253.56;5025056;28;20039;-55
2022/12/23 09:41:32;;;;;;;0.63;0.63;;;;;;;7.76;100.00;99259.25;5029356;28;20057;-58
2022/12/23 09:43:58;;;;;;;;;;;;;;;7.79;100.00;99248.28;5024182;28;20051;-57
2022/12/23 09:46:27;;;;;;;0.10;0.10;;;;;;;7.75;100.00;99255.78;5019734;28;19925;-57
2022/12/23 09:48:59;;;;;;;0.25;0.15;;;;;;;7.78;100.00;99242.19;5029240;28;20479;-55
2022/12/23 09:51:24;;;;;;;0.15;0.15;;;;;;;7.69;100.00;99253.94;5026197;28;20039;-58
2022/12/23 09:54:13;;;;;;;0.52;0.30;;;;;;;7.76;100.00;99264.50;5023482;28;20025;-57
2022/12/23 09:56:58;;;;;;;0.20;0.20;;;;;;;7.81;100.00;99304.31;5019297;28;20018;-58
2022/12/23 09:59:33;;;;;;;0.10;0.10;;;;;;;7.78;100.00;99313.44;5023348;28;20034;-60
2022/12/23 10:02:34;;;;;;;0.00;0.00;;;;;;;7.87;100.00;99295.56;5027264;28;20033;-57
2022/12/23 10:05:18;;;;;;;0.32;0.22;;;;;;;7.86;100.00;99286.03;5025243;28;20134;-59
2022/12/23 10:07:43;;;;;;;1.58;0.65;;;;;;;7.83;100.00;99281.97;5023642;28;20091;-56
2022/12/23 10:10:31;;;;;;;0.30;0.10;;;;;;;7.86;100.00;99286.84;5017058;28;20425;-59
2022/12/23 10:12:59;;;;;;;1.38;0.65;;;;;;;7.87;100.00;99282.38;5022353;28;20554;-58
2022/12/23 10:15:31;;;;;;;2.55;0.30;;;;;;;7.92;100.00;99279.94;5022281;28;20040;-56
2022/12/23 10:18:02;;;;;;;3.30;0.30;;;;;;;7.94;100.00;99277.13;5017201;28;20033;-59
2022/12/23 10:20:38;;;;;;;0.70;0.10;;;;;;;7.97;100.00;99277.50;5021965;28;20478;-54
2022/12/23 10:23:12;;;;;;;0.82;0.47;;;;;;;8.03;100.00;99287.28;5021020;28;20460;-57
2022/12/23 10:25:49;;;;;;;0.57;0.20;;;;;;;8.05;100.00;99290.53;5020490;28;20098;-57
2022/12/23 10:28:14;;;;;;;0.73;0.30;;;;;;;8.06;100.00;99286.84;5024231;28;20059;-58
2022/12/23 10:30:44;;;;;;;0.20;0.20;;;;;;;8.12;100.00;99287.88;5021948;28;20021;-54
2022/12/23 10:33:20;;;;;;;0.30;0.30;;;;;;;8.17;100.00;99284.63;5023568;28;20592;-58
2022/12/23 10:36:04;;;;;;;0.30;0.30;;;;;;;8.20;100.00;99292.13;5024987;28;20493;-58
2022/12/23 10:38:57;;;;;;;1.02;0.30;;;;;;;8.21;100.00;99288.47;5027280;28;20841;-58
2022/12/23 10:41:47;;;;;;;0.82;0.40;;;;;;;8.37;100.00;99288.06;5021954;28;20026;-57
2022/12/23 10:44:36;;;;;;;2.47;0.85;;;;;;;8.39;100.00;99278.13;5026719;28;20057;-59
2022/12/23 10:47:20;;;;;;;3.20;0.85;;;;;;;8.35;100.00;99284.81;5015525;28;20029;-56
2022/12/23 10:49:51;;;;;;;0.68;0.57;;;;;;;8.35;100.00;99294.56;5013883;28;20065;-57
2022/12/23 10:52:26;;;;;;;0.40;0.30;;;;;;;8.45;100.00;99290.50;5016630;28;20040;-58
2022/12/23 10:54:52;;;;;;;3.13;0.80;;;;;;;8.42;100.00;99295.41;5024039;28;20060;-58
2022/12/23 10:57:18;;;;;;;0.93;0.90;;;;;;;8.49;100.00;99293.53;5025942;28;20482;-54
2022/12/23 10:59:44;;;;;;;2.83;0.55;;;;;;;8.51;100.00;99284.38;5028682;28;20470;-59
2022/12/23 11:02:25;;;;;;;1.40;0.45;;;;;;;8.55;100.00;99284.00;5029443;28;20040;-54
2022/12/23 11:04:51;;;;;;;0.85;0.57;;;;;;;8.50;100.00;99276.69;5028267;28;20124;-56
2022/12/23 11:07:24;;;;;;;0.80;0.80;;;;;;;8.53;100.00;99276.25;5030670;28;20319;-56
2022/12/23 11:10:02;;;;;;;0.65;0.60;;;;;;;8.62;100.00;99282.13;5024049;28;20092;-59
2022/12/23 11:12:42;;;;;;;0.80;0.77;;;;;;;8.58;100.00;99281.75;5033563;28;20037;-55
2022/12/23 11:15:24;;;;;;;1.05;0.90;;;;;;;8.56;100.00;99281.13;5019668;28;20021;-58
2022/12/23 11:18:01;;;;;;;1.48;0.40;;;;;;;8.62;100.00;99274.19;5028079;28;20025;-52
2022/12/23 11:20:27;;;;;;;0.63;0.57;;;;;;;8.67;100.00;99266.47;5027642;28;20550;-57
2022/12/23 11:22:57;;;;;;;1.30;0.60;;;;;;;8.78;100.00;99268.47;5029736;28;20120;-56
2022/12/23 11:25:31;;;;;;;0.60;0.40;;;;;;;8.89;100.00;99281.03;5024701;28;20032;-54
2022/12/23 11:28:14;;;;;;;0.63;0.63;;;;;;;9.08;100.00;99265.28;5028830;28;20053;-55
2022/12/23 11:31:08;;;;;;;0.50;0.50;;;;;;;9.23;100.00;99265.03;5028447;28;20029;-57
2022/12/23 11:33:37;;;;;;;1.40;0.50;;;;;;;9.30;100.00;99271.09;5026844;28;20470;-58
2022/12/23 11:36:11;;;;;;;1.77;0.30;;;;;;;9.36;100.00;99270.22;5029145;28;20026;-57
2022/12/23 11:38:48;;;;;;;0.30;0.30;;;;;;;9.38;100.00;99273.50;5030302;28;20025;-57
2022/12/23 11:41:19;;;;;;;2.47;1.17;;;;;;;9.54;100.00;99267.69;5032767;28;20072;-56
2022/12/23 11:44:09;;;;;;;0.90;0.30;;;;;;;9.79;100.00;99254.47;5024454;28;20032;-56
2022/12/23 11:46:34;;;;;;;2.22;0.82;;;;;;;10.11;100.00;99264.19;5029980;28;20108;-54
2022/12/23 11:49:24;;;;;;;1.63;0.57;;;;;;;10.26;100.00;99267.31;5025012;28;20053;-55
2022/12/23 11:52:05;;;;;;;1.05;0.57;;;;;;;10.47;100.00;99258.97;5030896;28;20025;-59
2022/12/23 11:54:31;;;;;;;0.68;0.50;;;;;;;10.85;100.00;99267.75;5030398;28;20041;-58
2022/12/23 11:56:59;;;;;;;1.73;0.70;;;;;;;10.92;100.00;99265.84;5032325;28;20036;-56
2022/12/23 11:59:39;;;;;;;0.93;0.60;;;;;;;11.02;100.00;99268.78;5032912;28;20033;-58
2022/12/23 12:02:20;;;;;;;3.05;0.85;;;;;;;10.91;100.00;99259.69;5035322;28;20025;-56
2022/12/23 12:04:55;;;;;;;0.38;0.38;;;;;;;10.74;100.00;99247.25;5028932;28;20039;-57
2022/12/23 12:07:21;;;;;;;1.58;0.95;;;;;;;10.59;100.00;99248.47;5027691;28;20094;-55
2022/12/23 12:09:47;;;;;;;0.93;0.50;;;;;;;10.51;100.00;99240.81;5032588;28;20099;-56
2022/12/23 12:12:20;;;;;;;1.30;0.30;;;;;;;10.41;100.00;99241.31;5035825;28;20040;-56
2022/12/23 12:14:50;;;;;;;0.63;0.30;;;;;;;10.35;100.00;99239.56;5021021;28;20030;-54